sensor_id;sensor_type;location;lat;lon;timestamp;P1;durP1;ratioP1;P2;durP2;ratioP2
66523;SDS011;53350;52.210;5.160;2023-05-10T00:00:02;46.92;;;27.33;;
66523;SDS011;53350;52.210;5.160;2023-05-10T00:02:29;41.40;;;26.50;;
66523;SDS011;53350;52.210;5.160;2023-05-10T00:04:56;46.85;;;28.00;;
66523;SDS011;53350;52.210;5.160;2023-05-10T00:07:22;43.58;;;27.17;;
66523;SDS011;53350;52.210;5.160;2023-05-10T00:09:50;43.25;;;26.77;;
66523;SDS011;53350;52.210;5.160;2023-05-10T00:12:16;45.00;;;27.17;;
66523;SDS011;53350;52.210;5.160;2023-05-10T00:14:43;48.55;;;27.90;;
66523;SDS011;53350;52.210;5.160;2023-05-10T00:17:10;45.00;;;27.30;;
66523;SDS011;53350;52.210;5.160;2023-05-10T00:19:36;45.58;;;26.83;;
66523;SDS011;53350;52.210;5.160;2023-05-10T00:22:03;38.92;;;26.25;;
66523;SDS011;53350;52.210;5.160;2023-05-10T00:24:29;44.25;;;26.85;;
66523;SDS011;53350;52.210;5.160;2023-05-10T00:26:57;45.30;;;27.90;;
66523;SDS011;53350;52.210;5.160;2023-05-10T00:29:23;44.40;;;27.33;;
66523;SDS011;53350;52.210;5.160;2023-05-10T00:31:50;42.08;;;25.83;;
66523;SDS011;53350;52.210;5.160;2023-05-10T00:34:16;44.28;;;26.75;;
66523;SDS011;53350;52.210;5.160;2023-05-10T00:36:43;42.47;;;26.58;;
66523;SDS011;53350;52.210;5.160;2023-05-10T00:39:09;47.50;;;28.20;;
66523;SDS011;53350;52.210;5.160;2023-05-10T00:41:35;48.35;;;27.08;;
66523;SDS011;53350;52.210;5.160;2023-05-10T00:44:03;49.80;;;28.40;;
66523;SDS011;53350;52.210;5.160;2023-05-10T00:46:30;46.08;;;28.23;;
66523;SDS011;53350;52.210;5.160;2023-05-10T00:48:57;51.70;;;28.40;;
66523;SDS011;53350;52.210;5.160;2023-05-10T00:51:24;52.67;;;29.92;;
66523;SDS011;53350;52.210;5.160;2023-05-10T00:53:50;50.25;;;28.92;;
66523;SDS011;53350;52.210;5.160;2023-05-10T00:56:17;53.35;;;29.80;;
66523;SDS011;53350;52.210;5.160;2023-05-10T00:58:45;48.08;;;29.08;;
66523;SDS011;53350;52.210;5.160;2023-05-10T01:01:13;53.60;;;29.60;;
66523;SDS011;53350;52.210;5.160;2023-05-10T01:03:39;48.83;;;29.00;;
66523;SDS011;53350;52.210;5.160;2023-05-10T01:06:06;51.50;;;30.55;;
66523;SDS011;53350;52.210;5.160;2023-05-10T01:11:01;54.25;;;30.05;;
66523;SDS011;53350;52.210;5.160;2023-05-10T01:13:30;45.10;;;28.05;;
66523;SDS011;53350;52.210;5.160;2023-05-10T01:15:59;50.92;;;30.42;;
66523;SDS011;53350;52.210;5.160;2023-05-10T01:18:28;49.47;;;29.83;;
66523;SDS011;53350;52.210;5.160;2023-05-10T01:20:59;51.70;;;30.75;;
66523;SDS011;53350;52.210;5.160;2023-05-10T01:23:36;51.53;;;31.00;;
66523;SDS011;53350;52.210;5.160;2023-05-10T01:26:21;51.13;;;29.73;;
66523;SDS011;53350;52.210;5.160;2023-05-10T01:29:12;49.05;;;31.60;;
66523;SDS011;53350;52.210;5.160;2023-05-10T01:34:48;52.67;;;30.17;;
66523;SDS011;53350;52.210;5.160;2023-05-10T01:37:25;55.72;;;32.05;;
66523;SDS011;53350;52.210;5.160;2023-05-10T01:39:58;54.90;;;32.08;;
66523;SDS011;53350;52.210;5.160;2023-05-10T01:42:29;55.78;;;33.08;;
66523;SDS011;53350;52.210;5.160;2023-05-10T01:45:05;60.30;;;34.28;;
66523;SDS011;53350;52.210;5.160;2023-05-10T01:47:40;60.42;;;34.03;;
66523;SDS011;53350;52.210;5.160;2023-05-10T01:50:10;66.35;;;35.55;;
66523;SDS011;53350;52.210;5.160;2023-05-10T01:52:44;69.32;;;35.45;;
66523;SDS011;53350;52.210;5.160;2023-05-10T01:55:16;65.82;;;36.28;;
66523;SDS011;53350;52.210;5.160;2023-05-10T01:57:46;67.35;;;35.13;;
66523;SDS011;53350;52.210;5.160;2023-05-10T02:00:14;66.07;;;36.65;;
66523;SDS011;53350;52.210;5.160;2023-05-10T02:02:44;58.90;;;34.90;;
66523;SDS011;53350;52.210;5.160;2023-05-10T02:05:12;65.57;;;35.85;;
66523;SDS011;53350;52.210;5.160;2023-05-10T02:10:08;69.05;;;35.67;;
66523;SDS011;53350;52.210;5.160;2023-05-10T02:12:37;68.90;;;35.75;;
66523;SDS011;53350;52.210;5.160;2023-05-10T02:15:07;58.92;;;33.45;;
66523;SDS011;53350;52.210;5.160;2023-05-10T02:17:35;66.55;;;35.30;;
66523;SDS011;53350;52.210;5.160;2023-05-10T02:20:05;68.00;;;36.33;;
66523;SDS011;53350;52.210;5.160;2023-05-10T02:22:34;64.90;;;36.15;;
66523;SDS011;53350;52.210;5.160;2023-05-10T02:25:03;64.55;;;36.78;;
66523;SDS011;53350;52.210;5.160;2023-05-10T02:27:32;65.85;;;36.00;;
66523;SDS011;53350;52.210;5.160;2023-05-10T02:30:00;67.22;;;35.97;;
66523;SDS011;53350;52.210;5.160;2023-05-10T02:32:28;63.95;;;33.70;;
66523;SDS011;53350;52.210;5.160;2023-05-10T02:34:55;64.20;;;32.40;;
66523;SDS011;53350;52.210;5.160;2023-05-10T02:37:24;56.07;;;30.00;;
66523;SDS011;53350;52.210;5.160;2023-05-10T02:44:50;49.60;;;28.40;;
66523;SDS011;53350;52.210;5.160;2023-05-10T02:47:18;50.78;;;28.08;;
66523;SDS011;53350;52.210;5.160;2023-05-10T02:49:45;48.10;;;28.30;;
66523;SDS011;53350;52.210;5.160;2023-05-10T02:52:12;47.10;;;26.35;;
66523;SDS011;53350;52.210;5.160;2023-05-10T02:54:45;52.05;;;30.15;;
66523;SDS011;53350;52.210;5.160;2023-05-10T02:57:15;49.08;;;30.50;;
66523;SDS011;53350;52.210;5.160;2023-05-10T02:59:44;59.53;;;32.33;;
66523;SDS011;53350;52.210;5.160;2023-05-10T03:02:11;74.65;;;36.63;;
66523;SDS011;53350;52.210;5.160;2023-05-10T03:04:38;45.90;;;24.35;;
66523;SDS011;53350;52.210;5.160;2023-05-10T03:07:05;76.07;;;36.65;;
66523;SDS011;53350;52.210;5.160;2023-05-10T03:09:31;71.30;;;34.50;;
66523;SDS011;53350;52.210;5.160;2023-05-10T03:12:02;81.75;;;36.33;;
66523;SDS011;53350;52.210;5.160;2023-05-10T03:14:40;74.32;;;31.90;;
66523;SDS011;53350;52.210;5.160;2023-05-10T03:17:15;75.35;;;36.17;;
66523;SDS011;53350;52.210;5.160;2023-05-10T03:19:46;81.57;;;34.08;;
66523;SDS011;53350;52.210;5.160;2023-05-10T03:22:30;73.78;;;33.38;;
66523;SDS011;53350;52.210;5.160;2023-05-10T03:25:00;67.95;;;30.08;;
66523;SDS011;53350;52.210;5.160;2023-05-10T03:27:33;71.32;;;32.45;;
66523;SDS011;53350;52.210;5.160;2023-05-10T03:30:01;74.13;;;33.53;;
66523;SDS011;53350;52.210;5.160;2023-05-10T03:32:28;75.75;;;32.70;;
66523;SDS011;53350;52.210;5.160;2023-05-10T03:34:56;70.60;;;30.33;;
66523;SDS011;53350;52.210;5.160;2023-05-10T03:37:23;67.38;;;31.10;;
66523;SDS011;53350;52.210;5.160;2023-05-10T03:39:49;58.40;;;28.38;;
66523;SDS011;53350;52.210;5.160;2023-05-10T03:42:16;51.22;;;24.42;;
66523;SDS011;53350;52.210;5.160;2023-05-10T03:44:44;51.67;;;25.98;;
66523;SDS011;53350;52.210;5.160;2023-05-10T03:47:10;66.93;;;31.02;;
66523;SDS011;53350;52.210;5.160;2023-05-10T03:49:37;65.18;;;29.27;;
66523;SDS011;53350;52.210;5.160;2023-05-10T03:52:03;71.18;;;30.20;;
66523;SDS011;53350;52.210;5.160;2023-05-10T03:54:30;70.75;;;30.05;;
66523;SDS011;53350;52.210;5.160;2023-05-10T03:56:57;58.20;;;26.42;;
66523;SDS011;53350;52.210;5.160;2023-05-10T03:59:25;54.47;;;28.23;;
66523;SDS011;53350;52.210;5.160;2023-05-10T04:01:53;53.88;;;25.58;;
66523;SDS011;53350;52.210;5.160;2023-05-10T04:04:20;50.70;;;24.70;;
66523;SDS011;53350;52.210;5.160;2023-05-10T04:06:46;44.70;;;23.55;;
66523;SDS011;53350;52.210;5.160;2023-05-10T04:09:13;50.08;;;26.30;;
66523;SDS011;53350;52.210;5.160;2023-05-10T04:11:40;52.47;;;28.30;;
66523;SDS011;53350;52.210;5.160;2023-05-10T04:14:06;51.13;;;27.05;;
66523;SDS011;53350;52.210;5.160;2023-05-10T04:16:33;49.10;;;24.38;;
66523;SDS011;53350;52.210;5.160;2023-05-10T04:19:01;48.15;;;26.30;;
66523;SDS011;53350;52.210;5.160;2023-05-10T04:21:27;56.03;;;29.67;;
66523;SDS011;53350;52.210;5.160;2023-05-10T04:23:54;58.45;;;30.38;;
66523;SDS011;53350;52.210;5.160;2023-05-10T04:26:20;60.97;;;30.52;;
66523;SDS011;53350;52.210;5.160;2023-05-10T04:28:47;63.35;;;32.63;;
66523;SDS011;53350;52.210;5.160;2023-05-10T04:31:13;66.07;;;32.40;;
66523;SDS011;53350;52.210;5.160;2023-05-10T04:33:40;60.03;;;27.58;;
66523;SDS011;53350;52.210;5.160;2023-05-10T04:36:08;56.45;;;29.10;;
66523;SDS011;53350;52.210;5.160;2023-05-10T04:38:34;63.72;;;29.15;;
66523;SDS011;53350;52.210;5.160;2023-05-10T04:41:04;58.47;;;27.40;;
66523;SDS011;53350;52.210;5.160;2023-05-10T04:43:31;62.22;;;26.20;;
66523;SDS011;53350;52.210;5.160;2023-05-10T04:45:57;64.78;;;28.83;;
66523;SDS011;53350;52.210;5.160;2023-05-10T04:48:24;61.42;;;29.13;;
66523;SDS011;53350;52.210;5.160;2023-05-10T04:50:50;61.53;;;28.83;;
66523;SDS011;53350;52.210;5.160;2023-05-10T04:53:18;56.55;;;28.40;;
66523;SDS011;53350;52.210;5.160;2023-05-10T04:55:44;52.17;;;26.55;;
66523;SDS011;53350;52.210;5.160;2023-05-10T04:58:11;54.95;;;28.00;;
66523;SDS011;53350;52.210;5.160;2023-05-10T05:00:38;57.95;;;27.50;;
66523;SDS011;53350;52.210;5.160;2023-05-10T05:03:04;58.53;;;29.73;;
66523;SDS011;53350;52.210;5.160;2023-05-10T05:05:31;54.47;;;30.23;;
66523;SDS011;53350;52.210;5.160;2023-05-10T05:07:57;60.10;;;31.50;;
66523;SDS011;53350;52.210;5.160;2023-05-10T05:10:25;56.00;;;30.75;;
66523;SDS011;53350;52.210;5.160;2023-05-10T05:12:51;56.17;;;29.65;;
66523;SDS011;53350;52.210;5.160;2023-05-10T05:15:18;68.32;;;31.75;;
66523;SDS011;53350;52.210;5.160;2023-05-10T05:17:44;43.20;;;23.00;;
66523;SDS011;53350;52.210;5.160;2023-05-10T05:20:11;37.95;;;22.42;;
66523;SDS011;53350;52.210;5.160;2023-05-10T05:22:38;35.47;;;19.45;;
66523;SDS011;53350;52.210;5.160;2023-05-10T05:25:05;34.63;;;18.55;;
66523;SDS011;53350;52.210;5.160;2023-05-10T05:27:33;26.65;;;15.30;;
66523;SDS011;53350;52.210;5.160;2023-05-10T05:29:59;22.90;;;14.68;;
66523;SDS011;53350;52.210;5.160;2023-05-10T05:32:26;26.38;;;16.33;;
66523;SDS011;53350;52.210;5.160;2023-05-10T05:34:53;27.92;;;16.70;;
66523;SDS011;53350;52.210;5.160;2023-05-10T05:37:20;28.63;;;16.23;;
66523;SDS011;53350;52.210;5.160;2023-05-10T05:39:47;28.35;;;16.33;;
66523;SDS011;53350;52.210;5.160;2023-05-10T05:42:14;24.30;;;15.07;;
66523;SDS011;53350;52.210;5.160;2023-05-10T05:44:44;23.67;;;14.68;;
66523;SDS011;53350;52.210;5.160;2023-05-10T05:47:10;24.23;;;14.88;;
66523;SDS011;53350;52.210;5.160;2023-05-10T05:49:37;22.70;;;14.05;;
66523;SDS011;53350;52.210;5.160;2023-05-10T05:52:04;20.63;;;12.73;;
66523;SDS011;53350;52.210;5.160;2023-05-10T05:54:30;20.00;;;12.77;;
66523;SDS011;53350;52.210;5.160;2023-05-10T05:56:58;19.98;;;13.43;;
66523;SDS011;53350;52.210;5.160;2023-05-10T05:59:25;18.42;;;12.10;;
66523;SDS011;53350;52.210;5.160;2023-05-10T06:01:53;21.08;;;12.68;;
66523;SDS011;53350;52.210;5.160;2023-05-10T06:04:20;21.85;;;13.18;;
66523;SDS011;53350;52.210;5.160;2023-05-10T06:06:46;22.15;;;11.77;;
66523;SDS011;53350;52.210;5.160;2023-05-10T06:09:13;26.17;;;14.60;;
66523;SDS011;53350;52.210;5.160;2023-05-10T06:11:39;26.35;;;15.18;;
66523;SDS011;53350;52.210;5.160;2023-05-10T06:14:06;29.60;;;15.57;;
66523;SDS011;53350;52.210;5.160;2023-05-10T06:16:32;25.40;;;15.40;;
66523;SDS011;53350;52.210;5.160;2023-05-10T06:19:01;25.33;;;15.93;;
66523;SDS011;53350;52.210;5.160;2023-05-10T06:21:27;31.67;;;16.13;;
66523;SDS011;53350;52.210;5.160;2023-05-10T06:23:54;28.73;;;15.10;;
66523;SDS011;53350;52.210;5.160;2023-05-10T06:26:20;28.10;;;15.65;;
66523;SDS011;53350;52.210;5.160;2023-05-10T06:28:46;32.13;;;16.77;;
66523;SDS011;53350;52.210;5.160;2023-05-10T06:31:13;28.63;;;15.13;;
66523;SDS011;53350;52.210;5.160;2023-05-10T06:33:39;32.92;;;16.73;;
66523;SDS011;53350;52.210;5.160;2023-05-10T06:36:07;28.15;;;15.07;;
66523;SDS011;53350;52.210;5.160;2023-05-10T06:38:34;25.02;;;14.85;;
66523;SDS011;53350;52.210;5.160;2023-05-10T06:41:00;27.92;;;15.77;;
66523;SDS011;53350;52.210;5.160;2023-05-10T06:43:26;30.20;;;15.38;;
66523;SDS011;53350;52.210;5.160;2023-05-10T06:45:54;25.17;;;14.88;;
66523;SDS011;53350;52.210;5.160;2023-05-10T06:48:20;27.20;;;15.07;;
66523;SDS011;53350;52.210;5.160;2023-05-10T06:50:47;24.85;;;15.27;;
66523;SDS011;53350;52.210;5.160;2023-05-10T06:53:15;25.67;;;14.45;;
66523;SDS011;53350;52.210;5.160;2023-05-10T06:55:41;25.58;;;14.02;;
66523;SDS011;53350;52.210;5.160;2023-05-10T06:58:08;20.40;;;13.20;;
66523;SDS011;53350;52.210;5.160;2023-05-10T07:00:34;21.63;;;13.32;;
66523;SDS011;53350;52.210;5.160;2023-05-10T07:03:04;21.48;;;13.55;;
66523;SDS011;53350;52.210;5.160;2023-05-10T07:05:31;25.15;;;14.82;;
66523;SDS011;53350;52.210;5.160;2023-05-10T07:07:57;21.42;;;14.00;;
66523;SDS011;53350;52.210;5.160;2023-05-10T07:10:25;22.77;;;13.20;;
66523;SDS011;53350;52.210;5.160;2023-05-10T07:12:51;23.17;;;13.38;;
66523;SDS011;53350;52.210;5.160;2023-05-10T07:15:18;23.58;;;14.40;;
66523;SDS011;53350;52.210;5.160;2023-05-10T07:17:44;25.92;;;14.93;;
66523;SDS011;53350;52.210;5.160;2023-05-10T07:20:11;23.27;;;13.45;;
66523;SDS011;53350;52.210;5.160;2023-05-10T07:22:38;21.05;;;13.52;;
66523;SDS011;53350;52.210;5.160;2023-05-10T07:25:05;19.75;;;12.63;;
66523;SDS011;53350;52.210;5.160;2023-05-10T07:27:33;18.65;;;13.13;;
66523;SDS011;53350;52.210;5.160;2023-05-10T07:30:00;22.75;;;12.35;;
66523;SDS011;53350;52.210;5.160;2023-05-10T07:32:26;21.52;;;13.27;;
66523;SDS011;53350;52.210;5.160;2023-05-10T07:34:53;19.60;;;13.70;;
66523;SDS011;53350;52.210;5.160;2023-05-10T07:37:19;21.75;;;12.60;;
66523;SDS011;53350;52.210;5.160;2023-05-10T07:39:46;22.70;;;13.88;;
66523;SDS011;53350;52.210;5.160;2023-05-10T07:42:12;19.40;;;12.85;;
66523;SDS011;53350;52.210;5.160;2023-05-10T07:44:40;21.88;;;12.20;;
66523;SDS011;53350;52.210;5.160;2023-05-10T07:47:06;21.33;;;11.75;;
66523;SDS011;53350;52.210;5.160;2023-05-10T07:49:33;20.90;;;12.77;;
66523;SDS011;53350;52.210;5.160;2023-05-10T07:52:00;22.30;;;14.07;;
66523;SDS011;53350;52.210;5.160;2023-05-10T07:54:28;20.10;;;13.60;;
66523;SDS011;53350;52.210;5.160;2023-05-10T07:56:55;20.13;;;13.32;;
66523;SDS011;53350;52.210;5.160;2023-05-10T07:59:21;22.35;;;14.07;;
66523;SDS011;53350;52.210;5.160;2023-05-10T08:01:49;20.13;;;14.07;;
66523;SDS011;53350;52.210;5.160;2023-05-10T08:04:15;22.08;;;14.68;;
66523;SDS011;53350;52.210;5.160;2023-05-10T08:06:42;21.02;;;13.93;;
66523;SDS011;53350;52.210;5.160;2023-05-10T08:09:08;18.88;;;13.63;;
66523;SDS011;53350;52.210;5.160;2023-05-10T08:11:35;20.77;;;14.10;;
66523;SDS011;53350;52.210;5.160;2023-05-10T08:14:02;20.65;;;13.18;;
66523;SDS011;53350;52.210;5.160;2023-05-10T08:16:28;22.92;;;13.77;;
66523;SDS011;53350;52.210;5.160;2023-05-10T08:18:56;19.70;;;12.77;;
66523;SDS011;53350;52.210;5.160;2023-05-10T08:21:22;21.63;;;11.98;;
66523;SDS011;53350;52.210;5.160;2023-05-10T08:23:49;20.50;;;12.15;;
66523;SDS011;53350;52.210;5.160;2023-05-10T08:26:15;19.90;;;12.45;;
66523;SDS011;53350;52.210;5.160;2023-05-10T08:28:42;14.55;;;10.95;;
66523;SDS011;53350;52.210;5.160;2023-05-10T08:31:08;19.63;;;12.07;;
66523;SDS011;53350;52.210;5.160;2023-05-10T08:33:35;21.55;;;12.20;;
66523;SDS011;53350;52.210;5.160;2023-05-10T08:36:03;18.70;;;10.40;;
66523;SDS011;53350;52.210;5.160;2023-05-10T08:38:29;16.85;;;10.90;;
66523;SDS011;53350;52.210;5.160;2023-05-10T08:40:56;19.55;;;11.40;;
66523;SDS011;53350;52.210;5.160;2023-05-10T08:43:24;17.27;;;11.38;;
66523;SDS011;53350;52.210;5.160;2023-05-10T08:45:53;13.50;;;10.00;;
66523;SDS011;53350;52.210;5.160;2023-05-10T08:48:20;15.77;;;9.20;;
66523;SDS011;53350;52.210;5.160;2023-05-10T08:50:49;12.98;;;8.85;;
66523;SDS011;53350;52.210;5.160;2023-05-10T08:53:20;14.02;;;9.15;;
66523;SDS011;53350;52.210;5.160;2023-05-10T08:55:49;16.48;;;9.52;;
66523;SDS011;53350;52.210;5.160;2023-05-10T08:58:16;15.02;;;9.80;;
66523;SDS011;53350;52.210;5.160;2023-05-10T09:00:44;18.38;;;10.45;;
66523;SDS011;53350;52.210;5.160;2023-05-10T09:03:12;15.55;;;10.68;;
66523;SDS011;53350;52.210;5.160;2023-05-10T09:05:39;14.35;;;9.35;;
66523;SDS011;53350;52.210;5.160;2023-05-10T09:08:06;15.35;;;9.43;;
66523;SDS011;53350;52.210;5.160;2023-05-10T09:10:36;18.55;;;9.48;;
66523;SDS011;53350;52.210;5.160;2023-05-10T09:13:04;14.20;;;8.82;;
66523;SDS011;53350;52.210;5.160;2023-05-10T09:15:31;12.55;;;8.05;;
66523;SDS011;53350;52.210;5.160;2023-05-10T09:17:58;14.57;;;9.18;;
66523;SDS011;53350;52.210;5.160;2023-05-10T09:20:27;13.40;;;8.32;;
66523;SDS011;53350;52.210;5.160;2023-05-10T09:22:53;12.75;;;8.05;;
66523;SDS011;53350;52.210;5.160;2023-05-10T09:25:20;12.00;;;8.10;;
66523;SDS011;53350;52.210;5.160;2023-05-10T09:27:48;11.45;;;7.85;;
66523;SDS011;53350;52.210;5.160;2023-05-10T09:30:15;12.48;;;7.90;;
66523;SDS011;53350;52.210;5.160;2023-05-10T09:32:43;10.82;;;7.50;;
66523;SDS011;53350;52.210;5.160;2023-05-10T09:35:12;11.05;;;7.75;;
66523;SDS011;53350;52.210;5.160;2023-05-10T09:37:40;12.02;;;6.63;;
66523;SDS011;53350;52.210;5.160;2023-05-10T09:40:11;11.63;;;6.53;;
66523;SDS011;53350;52.210;5.160;2023-05-10T09:42:38;11.50;;;6.93;;
66523;SDS011;53350;52.210;5.160;2023-05-10T09:45:08;12.40;;;7.07;;
66523;SDS011;53350;52.210;5.160;2023-05-10T09:47:35;12.20;;;6.30;;
66523;SDS011;53350;52.210;5.160;2023-05-10T09:50:02;12.02;;;6.32;;
66523;SDS011;53350;52.210;5.160;2023-05-10T09:52:29;10.60;;;6.37;;
66523;SDS011;53350;52.210;5.160;2023-05-10T09:54:57;12.02;;;7.18;;
66523;SDS011;53350;52.210;5.160;2023-05-10T09:57:23;10.55;;;6.90;;
66523;SDS011;53350;52.210;5.160;2023-05-10T09:59:51;10.88;;;6.70;;
66523;SDS011;53350;52.210;5.160;2023-05-10T10:04:48;13.10;;;6.43;;
66523;SDS011;53350;52.210;5.160;2023-05-10T10:07:17;9.95;;;5.95;;
66523;SDS011;53350;52.210;5.160;2023-05-10T10:09:49;12.70;;;6.93;;
66523;SDS011;53350;52.210;5.160;2023-05-10T10:12:16;9.63;;;5.43;;
66523;SDS011;53350;52.210;5.160;2023-05-10T10:14:43;8.43;;;4.45;;
66523;SDS011;53350;52.210;5.160;2023-05-10T10:17:14;8.57;;;5.13;;
66523;SDS011;53350;52.210;5.160;2023-05-10T10:19:42;7.95;;;4.50;;
66523;SDS011;53350;52.210;5.160;2023-05-10T10:22:09;11.25;;;4.90;;
66523;SDS011;53350;52.210;5.160;2023-05-10T10:24:37;11.85;;;5.40;;
66523;SDS011;53350;52.210;5.160;2023-05-10T10:27:08;11.07;;;5.28;;
66523;SDS011;53350;52.210;5.160;2023-05-10T10:29:47;8.80;;;4.50;;
66523;SDS011;53350;52.210;5.160;2023-05-10T10:32:20;7.90;;;4.00;;
66523;SDS011;53350;52.210;5.160;2023-05-10T10:34:53;11.18;;;4.57;;
66523;SDS011;53350;52.210;5.160;2023-05-10T10:37:21;9.15;;;4.32;;
66523;SDS011;53350;52.210;5.160;2023-05-10T10:39:47;7.80;;;5.25;;
66523;SDS011;53350;52.210;5.160;2023-05-10T10:42:14;9.15;;;5.15;;
66523;SDS011;53350;52.210;5.160;2023-05-10T10:45:13;10.02;;;5.53;;
66523;SDS011;53350;52.210;5.160;2023-05-10T10:47:40;8.93;;;5.10;;
66523;SDS011;53350;52.210;5.160;2023-05-10T10:50:09;8.23;;;3.67;;
66523;SDS011;53350;52.210;5.160;2023-05-10T10:52:37;7.95;;;4.00;;
66523;SDS011;53350;52.210;5.160;2023-05-10T10:55:05;9.33;;;4.33;;
66523;SDS011;53350;52.210;5.160;2023-05-10T10:57:34;7.82;;;4.13;;
66523;SDS011;53350;52.210;5.160;2023-05-10T11:00:28;7.90;;;3.50;;
66523;SDS011;53350;52.210;5.160;2023-05-10T11:02:56;10.95;;;3.60;;
66523;SDS011;53350;52.210;5.160;2023-05-10T11:08:18;7.53;;;3.78;;
66523;SDS011;53350;52.210;5.160;2023-05-10T11:11:03;9.20;;;3.47;;
66523;SDS011;53350;52.210;5.160;2023-05-10T11:13:33;9.13;;;4.50;;
66523;SDS011;53350;52.210;5.160;2023-05-10T11:18:37;11.60;;;4.82;;
66523;SDS011;53350;52.210;5.160;2023-05-10T11:21:06;8.88;;;4.30;;
66523;SDS011;53350;52.210;5.160;2023-05-10T11:23:47;6.38;;;3.97;;
66523;SDS011;53350;52.210;5.160;2023-05-10T11:26:14;8.02;;;4.28;;
66523;SDS011;53350;52.210;5.160;2023-05-10T11:28:41;10.27;;;4.15;;
66523;SDS011;53350;52.210;5.160;2023-05-10T11:31:07;10.02;;;4.07;;
66523;SDS011;53350;52.210;5.160;2023-05-10T11:33:41;9.82;;;3.67;;
66523;SDS011;53350;52.210;5.160;2023-05-10T11:36:11;9.02;;;3.40;;
66523;SDS011;53350;52.210;5.160;2023-05-10T11:38:38;8.63;;;3.28;;
66523;SDS011;53350;52.210;5.160;2023-05-10T11:41:04;7.80;;;3.90;;
66523;SDS011;53350;52.210;5.160;2023-05-10T11:43:31;11.15;;;3.97;;
66523;SDS011;53350;52.210;5.160;2023-05-10T11:45:57;7.40;;;3.80;;
66523;SDS011;53350;52.210;5.160;2023-05-10T11:48:25;7.78;;;3.22;;
66523;SDS011;53350;52.210;5.160;2023-05-10T11:50:51;8.75;;;3.72;;
66523;SDS011;53350;52.210;5.160;2023-05-10T11:53:23;10.18;;;3.63;;
66523;SDS011;53350;52.210;5.160;2023-05-10T11:55:51;10.35;;;4.22;;
66523;SDS011;53350;52.210;5.160;2023-05-10T11:58:18;10.27;;;4.00;;
66523;SDS011;53350;52.210;5.160;2023-05-10T12:03:13;8.93;;;3.83;;
66523;SDS011;53350;52.210;5.160;2023-05-10T12:05:39;7.35;;;3.97;;
66523;SDS011;53350;52.210;5.160;2023-05-10T12:08:10;10.35;;;4.15;;
66523;SDS011;53350;52.210;5.160;2023-05-10T12:10:39;8.18;;;3.80;;
66523;SDS011;53350;52.210;5.160;2023-05-10T12:13:10;9.50;;;4.20;;
66523;SDS011;53350;52.210;5.160;2023-05-10T12:15:37;8.90;;;4.13;;
66523;SDS011;53350;52.210;5.160;2023-05-10T12:18:04;9.35;;;3.42;;
66523;SDS011;53350;52.210;5.160;2023-05-10T12:20:31;8.68;;;3.90;;
66523;SDS011;53350;52.210;5.160;2023-05-10T12:22:57;8.57;;;4.03;;
66523;SDS011;53350;52.210;5.160;2023-05-10T12:25:29;9.40;;;4.22;;
66523;SDS011;53350;52.210;5.160;2023-05-10T12:27:58;9.50;;;4.60;;
66523;SDS011;53350;52.210;5.160;2023-05-10T12:30:26;7.32;;;4.18;;
66523;SDS011;53350;52.210;5.160;2023-05-10T12:32:54;8.90;;;4.72;;
66523;SDS011;53350;52.210;5.160;2023-05-10T12:35:27;12.57;;;4.38;;
66523;SDS011;53350;52.210;5.160;2023-05-10T12:37:56;11.05;;;4.22;;
66523;SDS011;53350;52.210;5.160;2023-05-10T12:40:23;8.77;;;4.18;;
66523;SDS011;53350;52.210;5.160;2023-05-10T12:42:50;8.98;;;5.28;;
66523;SDS011;53350;52.210;5.160;2023-05-10T12:45:18;9.63;;;5.28;;
66523;SDS011;53350;52.210;5.160;2023-05-10T12:47:44;9.95;;;5.40;;
66523;SDS011;53350;52.210;5.160;2023-05-10T12:50:11;9.48;;;5.22;;
66523;SDS011;53350;52.210;5.160;2023-05-10T12:52:37;10.77;;;5.85;;
66523;SDS011;53350;52.210;5.160;2023-05-10T12:55:04;11.27;;;5.78;;
66523;SDS011;53350;52.210;5.160;2023-05-10T12:57:31;12.97;;;6.17;;
66523;SDS011;53350;52.210;5.160;2023-05-10T12:59:58;14.27;;;7.75;;
66523;SDS011;53350;52.210;5.160;2023-05-10T13:02:26;14.45;;;8.82;;
66523;SDS011;53350;52.210;5.160;2023-05-10T13:04:52;16.63;;;10.65;;
66523;SDS011;53350;52.210;5.160;2023-05-10T13:07:18;17.30;;;9.35;;
66523;SDS011;53350;52.210;5.160;2023-05-10T13:09:45;17.10;;;9.35;;
66523;SDS011;53350;52.210;5.160;2023-05-10T13:12:11;17.27;;;10.18;;
66523;SDS011;53350;52.210;5.160;2023-05-10T13:14:38;18.15;;;10.02;;
66523;SDS011;53350;52.210;5.160;2023-05-10T13:17:05;19.27;;;8.43;;
66523;SDS011;53350;52.210;5.160;2023-05-10T13:19:33;17.38;;;9.75;;
66523;SDS011;53350;52.210;5.160;2023-05-10T13:21:59;16.90;;;9.90;;
66523;SDS011;53350;52.210;5.160;2023-05-10T13:24:26;16.27;;;10.10;;
66523;SDS011;53350;52.210;5.160;2023-05-10T13:26:52;19.83;;;10.95;;
66523;SDS011;53350;52.210;5.160;2023-05-10T13:29:19;16.38;;;9.48;;
66523;SDS011;53350;52.210;5.160;2023-05-10T13:31:47;20.35;;;10.82;;
66523;SDS011;53350;52.210;5.160;2023-05-10T13:34:13;18.95;;;9.02;;
66523;SDS011;53350;52.210;5.160;2023-05-10T13:36:41;16.73;;;8.20;;
66523;SDS011;53350;52.210;5.160;2023-05-10T13:39:08;14.35;;;8.18;;
66523;SDS011;53350;52.210;5.160;2023-05-10T13:41:34;17.73;;;7.80;;
66523;SDS011;53350;52.210;5.160;2023-05-10T13:44:01;16.77;;;8.45;;
66523;SDS011;53350;52.210;5.160;2023-05-10T13:46:28;12.77;;;6.95;;
66523;SDS011;53350;52.210;5.160;2023-05-10T13:48:54;11.88;;;6.25;;
66523;SDS011;53350;52.210;5.160;2023-05-10T13:51:21;13.20;;;7.10;;
66523;SDS011;53350;52.210;5.160;2023-05-10T13:53:49;14.05;;;7.18;;
66523;SDS011;53350;52.210;5.160;2023-05-10T13:56:17;12.75;;;7.43;;
66523;SDS011;53350;52.210;5.160;2023-05-10T13:58:43;11.98;;;7.30;;
66523;SDS011;53350;52.210;5.160;2023-05-10T14:01:09;15.57;;;6.75;;
66523;SDS011;53350;52.210;5.160;2023-05-10T14:03:37;14.13;;;8.13;;
66523;SDS011;53350;52.210;5.160;2023-05-10T14:06:03;15.15;;;7.00;;
66523;SDS011;53350;52.210;5.160;2023-05-10T14:08:30;15.27;;;6.55;;
66523;SDS011;53350;52.210;5.160;2023-05-10T14:10:57;15.80;;;7.55;;
66523;SDS011;53350;52.210;5.160;2023-05-10T14:13:24;12.98;;;7.00;;
66523;SDS011;53350;52.210;5.160;2023-05-10T14:15:50;12.90;;;6.28;;
66523;SDS011;53350;52.210;5.160;2023-05-10T14:18:18;12.60;;;6.63;;
66523;SDS011;53350;52.210;5.160;2023-05-10T14:20:44;11.90;;;5.40;;
66523;SDS011;53350;52.210;5.160;2023-05-10T14:23:11;12.80;;;5.55;;
66523;SDS011;53350;52.210;5.160;2023-05-10T14:25:37;14.18;;;6.93;;
66523;SDS011;53350;52.210;5.160;2023-05-10T14:28:05;14.43;;;7.07;;
66523;SDS011;53350;52.210;5.160;2023-05-10T14:30:32;13.07;;;6.53;;
66523;SDS011;53350;52.210;5.160;2023-05-10T14:32:59;12.48;;;7.00;;
66523;SDS011;53350;52.210;5.160;2023-05-10T14:35:26;12.75;;;6.95;;
66523;SDS011;53350;52.210;5.160;2023-05-10T14:37:52;11.63;;;6.00;;
66523;SDS011;53350;52.210;5.160;2023-05-10T14:40:19;11.35;;;5.78;;
66523;SDS011;53350;52.210;5.160;2023-05-10T14:42:46;12.80;;;6.60;;
66523;SDS011;53350;52.210;5.160;2023-05-10T14:45:13;11.43;;;6.05;;
66523;SDS011;53350;52.210;5.160;2023-05-10T14:47:40;12.80;;;7.05;;
66523;SDS011;53350;52.210;5.160;2023-05-10T14:50:06;13.18;;;6.45;;
66523;SDS011;53350;52.210;5.160;2023-05-10T14:52:33;13.93;;;6.97;;
66523;SDS011;53350;52.210;5.160;2023-05-10T14:55:01;13.13;;;6.38;;